createdAt,value
2023-11-19T00:00:18.008Z,1.20
2023-11-19T00:02:44.933Z,1.40
2023-11-19T00:05:15.103Z,1.40
2023-11-19T00:07:45.290Z,1.20
2023-11-19T00:10:13.478Z,1.30
2023-11-19T00:12:46.038Z,3.10
2023-11-19T00:15:16.029Z,2.10
2023-11-19T00:17:46.993Z,3.20
2023-11-19T00:20:15.052Z,2.90
2023-11-19T00:25:14.889Z,1.30
2023-11-19T00:27:41.569Z,1.50
2023-11-19T00:30:11.490Z,1.43
2023-11-19T00:32:40.264Z,1.80
2023-11-19T00:35:08.387Z,2.47
2023-11-19T00:37:35.211Z,1.10
2023-11-19T00:40:01.869Z,1.40
2023-11-19T00:42:28.511Z,1.33
2023-11-19T00:44:56.432Z,2.30
2023-11-19T00:47:23.219Z,5.87
2023-11-19T00:49:49.966Z,1.27
2023-11-19T00:52:17.696Z,1.67
2023-11-19T00:54:44.643Z,1.73
2023-11-19T00:57:11.317Z,1.40
2023-11-19T00:59:38.458Z,1.40
2023-11-19T01:02:07.180Z,1.47
2023-11-19T01:04:37.840Z,1.47
2023-11-19T01:07:05.329Z,2.00
2023-11-19T01:09:36.619Z,1.37
2023-11-19T01:12:04.060Z,1.27
2023-11-19T01:14:31.420Z,1.70
2023-11-19T01:16:58.870Z,5.43
2023-11-19T01:19:25.869Z,5.03
2023-11-19T01:21:52.931Z,2.33
2023-11-19T01:24:19.688Z,1.30
2023-11-19T01:26:46.630Z,1.40
2023-11-19T01:29:17.494Z,2.17
2023-11-19T01:31:46.289Z,1.20
2023-11-19T01:34:13.143Z,2.50
2023-11-19T01:36:40.348Z,2.27
2023-11-19T01:39:07.863Z,1.60
2023-11-19T01:41:38.035Z,1.10
2023-11-19T01:44:06.649Z,2.33
2023-11-19T01:46:34.349Z,2.00
2023-11-19T01:49:03.709Z,1.60
2023-11-19T01:51:31.085Z,1.57
2023-11-19T01:53:59.244Z,1.50
2023-11-19T01:56:27.670Z,1.30
2023-11-19T01:58:56.401Z,1.73
2023-11-19T02:01:23.367Z,1.30
2023-11-19T02:03:50.356Z,2.23
2023-11-19T02:06:17.412Z,1.00
2023-11-19T02:08:44.811Z,1.37
2023-11-19T02:11:13.070Z,1.10
2023-11-19T02:13:42.338Z,1.10
2023-11-19T02:16:12.164Z,4.03
2023-11-19T02:18:39.420Z,1.30
2023-11-19T02:21:06.592Z,2.30
2023-11-19T02:23:33.842Z,2.80
2023-11-19T02:26:18.693Z,1.47
2023-11-19T02:28:45.628Z,17.77
2023-11-19T02:31:12.556Z,2.27
2023-11-19T02:33:40.158Z,2.47
2023-11-19T02:36:09.385Z,2.37
2023-11-19T02:38:37.036Z,1.20
2023-11-19T02:41:07.805Z,1.30
2023-11-19T02:43:35.515Z,1.67
2023-11-19T02:48:39.160Z,1.70
2023-11-19T02:51:07.593Z,1.37
2023-11-19T02:53:34.250Z,1.50
2023-11-19T02:56:12.582Z,2.40
2023-11-19T02:58:40.164Z,1.70
2023-11-19T03:01:24.134Z,1.10
2023-11-19T03:03:57.981Z,1.30
2023-11-19T03:06:25.496Z,1.83
2023-11-19T03:08:52.169Z,1.40
2023-11-19T03:11:18.868Z,1.23
2023-11-19T03:13:45.492Z,1.53
2023-11-19T03:16:12.377Z,3.50
2023-11-19T03:18:40.190Z,1.23
2023-11-19T03:21:09.151Z,1.30
2023-11-19T03:23:36.399Z,1.60
2023-11-19T03:26:06.800Z,1.77
2023-11-19T03:28:33.874Z,2.33
2023-11-19T03:31:00.743Z,1.37
2023-11-19T03:33:29.060Z,1.50
2023-11-19T03:35:57.545Z,3.10
2023-11-19T03:38:25.970Z,2.30
2023-11-19T03:40:52.923Z,1.73
2023-11-19T03:43:22.474Z,1.57
2023-11-19T03:45:49.313Z,1.40
2023-11-19T03:48:20.137Z,1.57
2023-11-19T03:50:46.957Z,1.40
2023-11-19T03:53:13.746Z,1.60
2023-11-19T03:55:40.384Z,1.47
2023-11-19T03:58:07.055Z,5.37
2023-11-19T04:00:33.845Z,1.53
2023-11-19T04:03:00.826Z,1.80
2023-11-19T04:05:27.679Z,1.53
2023-11-19T04:07:54.384Z,1.80
2023-11-19T04:10:21.619Z,1.17
2023-11-19T04:12:48.385Z,2.17
2023-11-19T04:15:15.774Z,4.30
2023-11-19T04:17:42.544Z,1.20
2023-11-19T04:20:13.276Z,2.13
2023-11-19T04:22:40.332Z,1.43
2023-11-19T04:25:07.451Z,2.00
2023-11-19T04:27:34.204Z,1.30
2023-11-19T04:30:02.846Z,1.90
2023-11-19T04:32:29.985Z,1.70
2023-11-19T04:34:57.038Z,1.57
2023-11-19T04:37:23.831Z,2.80
2023-11-19T04:39:50.673Z,1.20
2023-11-19T04:42:18.193Z,2.80
2023-11-19T04:44:45.382Z,1.70
2023-11-19T04:47:12.150Z,1.27
2023-11-19T04:49:43.981Z,1.47
2023-11-19T04:52:10.720Z,1.53
2023-11-19T04:54:45.376Z,1.63
2023-11-19T04:57:12.189Z,2.00
2023-11-19T04:59:39.474Z,1.80
2023-11-19T05:02:06.542Z,1.20
2023-11-19T05:04:33.431Z,2.47
2023-11-19T05:07:02.334Z,7.10
2023-11-19T05:09:29.064Z,3.63
2023-11-19T05:11:55.781Z,7.43
2023-11-19T05:14:23.173Z,3.20
2023-11-19T05:16:50.204Z,2.90
2023-11-19T05:19:17.333Z,1.40
2023-11-19T05:21:44.861Z,1.63
2023-11-19T05:24:13.006Z,1.30
2023-11-19T05:26:39.876Z,1.60
2023-11-19T05:29:06.575Z,1.60
2023-11-19T05:31:36.270Z,1.50
2023-11-19T05:34:03.761Z,1.20
2023-11-19T05:36:31.562Z,1.80
2023-11-19T05:38:58.205Z,1.40
2023-11-19T05:41:25.340Z,2.10
2023-11-19T05:43:52.645Z,1.50
2023-11-19T05:46:20.664Z,1.50
2023-11-19T05:48:48.440Z,1.80
2023-11-19T05:51:18.297Z,3.93
2023-11-19T05:53:48.669Z,2.37
2023-11-19T05:56:16.798Z,2.33
2023-11-19T05:58:45.694Z,1.77
2023-11-19T06:01:12.454Z,2.40
2023-11-19T06:03:39.445Z,1.50
2023-11-19T06:06:06.658Z,2.33
2023-11-19T06:08:33.565Z,2.07
2023-11-19T06:11:02.115Z,1.30
2023-11-19T06:13:28.809Z,1.43
2023-11-19T06:15:55.484Z,2.90
2023-11-19T06:18:22.238Z,2.43
2023-11-19T06:20:49.233Z,1.30
2023-11-19T06:23:16.090Z,2.70
2023-11-19T06:25:43.162Z,7.90
2023-11-19T06:28:10.632Z,2.30
2023-11-19T06:30:37.414Z,2.07
2023-11-19T06:33:04.723Z,3.50
2023-11-19T06:35:37.123Z,1.67
2023-11-19T06:38:05.626Z,3.03
2023-11-19T06:40:39.039Z,2.97
2023-11-19T06:43:09.541Z,1.40
2023-11-19T06:45:37.974Z,3.37
2023-11-19T06:48:05.760Z,2.70
2023-11-19T06:50:35.493Z,2.70
2023-11-19T06:53:02.235Z,2.13
2023-11-19T06:55:29.051Z,2.70
2023-11-19T06:57:55.841Z,3.60
2023-11-19T07:00:23.607Z,4.93
2023-11-19T07:02:51.373Z,4.47
2023-11-19T07:05:18.202Z,3.70
2023-11-19T07:07:44.941Z,2.67
2023-11-19T07:10:11.693Z,4.50
2023-11-19T07:12:38.558Z,4.43
2023-11-19T07:15:06.553Z,4.70
2023-11-19T07:17:33.298Z,4.50
2023-11-19T07:20:01.428Z,4.77
2023-11-19T07:22:30.556Z,5.53
2023-11-19T07:24:57.418Z,3.80
2023-11-19T07:27:25.332Z,3.03
2023-11-19T07:29:52.203Z,1.93
2023-11-19T07:32:19.195Z,2.83
2023-11-19T07:34:45.970Z,2.47
2023-11-19T07:37:13.365Z,3.67
2023-11-19T07:39:42.016Z,2.90
2023-11-19T07:42:10.240Z,5.97
2023-11-19T07:44:37.764Z,4.67
2023-11-19T07:47:04.926Z,2.70
2023-11-19T07:49:32.050Z,6.23
2023-11-19T07:51:58.925Z,4.53
2023-11-19T07:54:25.632Z,3.37
2023-11-19T07:56:52.501Z,6.73
2023-11-19T07:59:19.206Z,8.33
2023-11-19T08:01:45.973Z,4.60
2023-11-19T08:04:12.878Z,3.70
2023-11-19T08:06:39.882Z,7.77
2023-11-19T08:09:07.588Z,9.80
2023-11-19T08:11:34.881Z,5.37
2023-11-19T08:14:01.637Z,12.50
2023-11-19T08:16:28.340Z,12.30
2023-11-19T08:18:55.006Z,9.93
2023-11-19T08:21:23.728Z,12.47
2023-11-19T08:23:50.420Z,8.60
2023-11-19T08:26:20.371Z,10.80
2023-11-19T08:28:48.590Z,7.80
2023-11-19T08:31:15.345Z,9.47
2023-11-19T08:33:42.072Z,13.13
2023-11-19T08:36:09.270Z,14.60
2023-11-19T08:38:36.033Z,8.53
2023-11-19T08:41:02.754Z,11.00
2023-11-19T08:43:32.101Z,6.47
2023-11-19T08:45:58.746Z,11.10
2023-11-19T08:48:27.024Z,11.27
2023-11-19T08:50:53.705Z,21.23
2023-11-19T08:53:20.350Z,13.70
2023-11-19T08:55:47.257Z,6.93
2023-11-19T08:58:14.020Z,21.00
2023-11-19T09:00:41.557Z,14.10
2023-11-19T09:03:10.679Z,7.77
2023-11-19T09:05:38.185Z,12.67
2023-11-19T09:08:05.415Z,15.83
2023-11-19T09:10:32.618Z,9.90
2023-11-19T09:12:59.330Z,6.27
2023-11-19T09:15:26.259Z,16.47
2023-11-19T09:17:53.011Z,12.43
2023-11-19T09:20:19.848Z,8.50
2023-11-19T09:22:47.058Z,15.23
2023-11-19T09:25:18.138Z,15.23
2023-11-19T09:27:45.326Z,8.20
2023-11-19T09:30:12.548Z,15.07
2023-11-19T09:32:39.313Z,11.47
2023-11-19T09:35:07.390Z,11.90
2023-11-19T09:37:34.044Z,10.60
2023-11-19T09:40:00.778Z,12.23
2023-11-19T09:42:27.923Z,13.27
2023-11-19T09:44:57.314Z,14.87
2023-11-19T09:47:24.580Z,9.40
2023-11-19T09:49:51.691Z,4.70
2023-11-19T09:52:18.784Z,19.27
2023-11-19T09:54:45.493Z,15.30
2023-11-19T09:57:14.461Z,9.90
2023-11-19T09:59:41.780Z,12.60
2023-11-19T10:02:10.076Z,17.20
2023-11-19T10:04:38.217Z,10.87
2023-11-19T10:07:05.310Z,15.60
2023-11-19T10:09:32.011Z,12.70
2023-11-19T10:11:58.655Z,16.17
2023-11-19T10:14:25.538Z,11.80
2023-11-19T10:16:52.358Z,12.40
2023-11-19T10:19:22.327Z,14.17
2023-11-19T10:21:49.353Z,12.23
2023-11-19T10:24:30.161Z,12.43
2023-11-19T10:26:58.332Z,5.83
2023-11-19T10:29:25.280Z,13.60
2023-11-19T10:32:23.470Z,7.47
2023-11-19T10:34:45.553Z,12.57
2023-11-19T10:37:36.384Z,11.13
2023-11-19T10:40:06.137Z,10.87
2023-11-19T10:42:32.932Z,13.37
2023-11-19T10:44:59.623Z,17.47
2023-11-19T10:49:56.866Z,13.57
2023-11-19T10:52:24.713Z,18.23
2023-11-19T10:54:52.998Z,23.20
2023-11-19T10:57:22.845Z,16.20
2023-11-19T10:59:53.526Z,12.27
2023-11-19T11:02:25.597Z,14.00
2023-11-19T11:04:53.127Z,15.80
2023-11-19T11:07:29.961Z,15.43
2023-11-19T11:10:07.169Z,9.63
2023-11-19T11:12:37.811Z,20.33
2023-11-19T11:15:06.883Z,15.63
2023-11-19T11:17:35.385Z,16.60
2023-11-19T11:20:03.896Z,16.70
2023-11-19T11:22:41.537Z,14.53
2023-11-19T11:25:27.255Z,13.33
2023-11-19T11:28:06.546Z,13.73
2023-11-19T11:30:40.625Z,17.20
2023-11-19T11:33:22.781Z,10.10
2023-11-19T11:36:14.995Z,10.57
2023-11-19T11:38:42.896Z,12.10
2023-11-19T11:41:26.316Z,14.67
2023-11-19T11:44:01.233Z,17.00
2023-11-19T11:46:34.369Z,9.70
2023-11-19T11:49:02.960Z,11.83
2023-11-19T11:51:45.338Z,10.77
2023-11-19T11:54:26.446Z,10.83
2023-11-19T11:57:14.407Z,18.10
2023-11-19T11:59:51.901Z,16.97
2023-11-19T12:02:22.146Z,10.53
2023-11-19T12:04:51.043Z,9.90
2023-11-19T12:07:23.069Z,15.83
2023-11-19T12:10:10.199Z,25.47
2023-11-19T12:12:39.211Z,13.27
2023-11-19T12:15:12.911Z,18.20
2023-11-19T12:17:53.157Z,11.83
2023-11-19T12:20:36.143Z,12.93
2023-11-19T12:23:07.206Z,11.50
2023-11-19T12:25:35.678Z,14.37
2023-11-19T12:28:05.612Z,23.43
2023-11-19T12:30:32.653Z,12.13
2023-11-19T12:33:00.223Z,12.73
2023-11-19T12:35:27.559Z,15.47
2023-11-19T12:37:54.360Z,11.97
2023-11-19T12:40:25.891Z,12.60
2023-11-19T12:42:54.581Z,6.50
2023-11-19T12:45:22.730Z,5.93
2023-11-19T12:47:50.636Z,8.10
2023-11-19T12:50:21.410Z,9.63
2023-11-19T12:52:58.554Z,13.00
2023-11-19T12:55:29.879Z,17.93
2023-11-19T12:57:59.358Z,11.13
2023-11-19T13:00:27.732Z,8.30
2023-11-19T13:02:58.531Z,11.77
2023-11-19T13:05:35.266Z,9.13
2023-11-19T13:08:09.493Z,14.17
2023-11-19T13:10:54.578Z,7.73
2023-11-19T13:13:21.568Z,13.03
2023-11-19T13:15:48.456Z,15.83
2023-11-19T13:18:17.964Z,17.33
2023-11-19T13:20:44.862Z,20.50
2023-11-19T13:23:13.541Z,19.10
2023-11-19T13:25:40.306Z,11.63
2023-11-19T13:28:07.069Z,20.10
2023-11-19T13:30:33.934Z,8.20
2023-11-19T13:33:02.264Z,9.63
2023-11-19T13:35:29.333Z,8.00
2023-11-19T13:37:56.017Z,16.60
2023-11-19T13:40:23.628Z,10.40
2023-11-19T13:42:50.397Z,11.77
2023-11-19T13:45:19.344Z,14.23
2023-11-19T13:47:47.448Z,24.50
2023-11-19T13:50:15.608Z,8.57
2023-11-19T13:52:45.924Z,15.87
2023-11-19T13:55:13.057Z,15.53
2023-11-19T13:57:41.132Z,7.47
2023-11-19T14:00:19.941Z,10.40
2023-11-19T14:02:48.511Z,12.20
2023-11-19T14:05:18.272Z,7.03
2023-11-19T14:07:45.397Z,13.03
2023-11-19T14:10:12.501Z,15.50
2023-11-19T14:12:39.346Z,7.63
2023-11-19T14:15:07.525Z,13.83
2023-11-19T14:17:35.190Z,10.20
2023-11-19T14:20:02.538Z,11.80
2023-11-19T14:22:29.921Z,10.50
2023-11-19T14:24:56.628Z,11.03
2023-11-19T14:27:23.503Z,11.23
2023-11-19T14:29:50.146Z,15.07
2023-11-19T14:32:17.270Z,19.90
2023-11-19T14:34:44.816Z,18.80
2023-11-19T14:37:12.579Z,10.50
2023-11-19T14:39:39.236Z,11.50
2023-11-19T14:42:06.476Z,10.53
2023-11-19T14:44:33.670Z,11.53
2023-11-19T14:47:00.533Z,10.33
2023-11-19T14:49:28.607Z,9.90
2023-11-19T14:51:55.353Z,11.10
2023-11-19T14:54:22.124Z,16.30
2023-11-19T14:56:48.866Z,14.20
2023-11-19T14:59:15.541Z,12.53
2023-11-19T15:01:42.248Z,10.93
2023-11-19T15:04:09.055Z,18.57
2023-11-19T15:06:35.877Z,13.33
2023-11-19T15:09:03.024Z,11.77
2023-11-19T15:11:30.065Z,10.93
2023-11-19T15:13:57.234Z,10.30
2023-11-19T15:16:33.258Z,10.13
2023-11-19T15:19:00.717Z,12.73
2023-11-19T15:21:30.607Z,14.53
2023-11-19T15:23:59.366Z,7.73
2023-11-19T15:26:26.754Z,10.03
2023-11-19T15:28:57.138Z,20.40
2023-11-19T15:31:24.349Z,14.70
2023-11-19T15:33:51.813Z,17.57
2023-11-19T15:36:18.820Z,10.90
2023-11-19T15:41:15.626Z,11.63
2023-11-19T15:43:42.678Z,18.57
2023-11-19T15:46:10.374Z,19.97
2023-11-19T15:48:37.175Z,13.50
2023-11-19T15:51:04.177Z,8.87
2023-11-19T15:53:34.324Z,8.33
2023-11-19T15:56:02.677Z,13.87
2023-11-19T15:58:30.440Z,9.67
2023-11-19T16:00:57.523Z,8.50
2023-11-19T16:03:24.388Z,15.33
2023-11-19T16:06:01.456Z,6.57
2023-11-19T16:08:34.095Z,18.60
2023-11-19T16:11:00.821Z,9.00
2023-11-19T16:13:27.573Z,9.97
2023-11-19T16:15:54.765Z,8.33
2023-11-19T16:18:21.585Z,10.13
2023-11-19T16:20:48.483Z,12.03
2023-11-19T16:23:17.190Z,6.60
2023-11-19T16:25:44.054Z,92.43
2023-11-19T16:28:10.770Z,63.50
2023-11-19T16:30:48.470Z,14.60
2023-11-19T16:33:21.315Z,19.63
2023-11-19T16:35:58.487Z,11.97
2023-11-19T16:38:27.604Z,17.30
2023-11-19T16:40:54.308Z,11.07
2023-11-19T16:43:21.059Z,13.30
2023-11-19T16:45:47.869Z,17.77
2023-11-19T16:48:14.727Z,8.57
2023-11-19T16:50:42.256Z,12.67
2023-11-19T16:53:09.746Z,7.77
2023-11-19T16:55:36.543Z,15.87
2023-11-19T16:58:03.330Z,10.33
2023-11-19T17:00:30.076Z,8.90
2023-11-19T17:03:00.174Z,12.57
2023-11-19T17:05:27.277Z,12.47
2023-11-19T17:07:54.425Z,33.93
2023-11-19T17:10:21.163Z,16.90
2023-11-19T17:12:47.893Z,9.17
2023-11-19T17:15:14.619Z,13.20
2023-11-19T17:17:41.480Z,20.07
2023-11-19T17:20:10.150Z,10.33
2023-11-19T17:22:39.477Z,10.00
2023-11-19T17:25:07.618Z,18.63
2023-11-19T17:27:34.760Z,7.77
2023-11-19T17:30:05.750Z,13.13
2023-11-19T17:32:35.230Z,15.67
2023-11-19T17:35:02.086Z,11.87
2023-11-19T17:37:28.857Z,5.67
2023-11-19T17:39:55.598Z,10.50
2023-11-19T17:42:26.545Z,16.20
2023-11-19T17:44:54.281Z,14.13
2023-11-19T17:47:21.883Z,9.17
2023-11-19T17:49:48.654Z,14.00
2023-11-19T17:52:15.335Z,7.90
2023-11-19T17:54:42.219Z,12.07
2023-11-19T17:57:08.926Z,16.73
2023-11-19T17:59:35.732Z,10.83
2023-11-19T18:02:03.344Z,12.43
2023-11-19T18:04:30.418Z,12.40
2023-11-19T18:06:57.277Z,15.23
2023-11-19T18:09:23.919Z,7.97
2023-11-19T18:11:57.330Z,19.90
2023-11-19T18:14:28.704Z,5.07
2023-11-19T18:16:55.457Z,8.53
2023-11-19T18:19:22.419Z,10.93
2023-11-19T18:21:50.001Z,10.03
2023-11-19T18:24:18.482Z,15.97
2023-11-19T18:26:45.345Z,10.87
2023-11-19T18:29:12.313Z,7.17
2023-11-19T18:31:39.178Z,10.63
2023-11-19T18:34:06.153Z,9.20
2023-11-19T18:36:37.796Z,20.83
2023-11-19T18:39:06.568Z,6.90
2023-11-19T18:41:33.328Z,13.33
2023-11-19T18:44:00.078Z,11.13
2023-11-19T18:46:26.808Z,11.03
2023-11-19T18:48:53.523Z,6.10
2023-11-19T18:51:20.367Z,12.83
2023-11-19T18:53:47.746Z,8.50
2023-11-19T18:56:15.281Z,13.40
2023-11-19T18:58:42.075Z,12.43
2023-11-19T19:01:09.996Z,12.50
2023-11-19T19:03:37.462Z,16.93
2023-11-19T19:06:05.819Z,11.57
2023-11-19T19:08:36.796Z,7.67
2023-11-19T19:11:03.620Z,11.20
2023-11-19T19:13:31.009Z,15.20
2023-11-19T19:15:57.850Z,10.43
2023-11-19T19:18:25.024Z,9.47
2023-11-19T19:20:52.916Z,16.70
2023-11-19T19:23:19.652Z,5.40
2023-11-19T19:25:46.358Z,19.40
2023-11-19T19:30:49.309Z,7.80
2023-11-19T19:33:16.168Z,4.73
2023-11-19T19:35:43.016Z,7.43
2023-11-19T19:38:10.734Z,11.03
2023-11-19T19:40:37.585Z,15.47
2023-11-19T19:43:05.355Z,18.93
2023-11-19T19:45:33.272Z,13.93
2023-11-19T19:48:00.289Z,5.73
2023-11-19T19:50:34.600Z,5.00
2023-11-19T19:53:01.307Z,6.90
2023-11-19T19:55:28.044Z,5.03
2023-11-19T19:57:55.658Z,10.90
2023-11-19T20:00:23.973Z,11.83
2023-11-19T20:02:51.580Z,10.63
2023-11-19T20:05:20.307Z,9.37
2023-11-19T20:07:48.813Z,10.93
2023-11-19T20:10:15.909Z,7.33
2023-11-19T20:12:43.053Z,5.50
2023-11-19T20:15:12.238Z,9.17
2023-11-19T20:17:39.279Z,9.70
2023-11-19T20:20:07.572Z,10.73
2023-11-19T20:22:35.401Z,8.97
2023-11-19T20:25:02.369Z,7.57
2023-11-19T20:27:29.312Z,10.33
2023-11-19T20:29:56.321Z,9.60
2023-11-19T20:32:23.326Z,11.23
2023-11-19T20:34:50.012Z,12.60
2023-11-19T20:37:16.671Z,10.87
2023-11-19T20:39:43.385Z,9.73
2023-11-19T20:42:10.074Z,11.53
2023-11-19T20:44:37.677Z,6.40
2023-11-19T20:47:06.291Z,12.00
2023-11-19T20:49:33.140Z,9.00
2023-11-19T20:52:00.945Z,9.20
2023-11-19T20:56:57.320Z,7.10
2023-11-19T20:59:24.553Z,6.20
2023-11-19T21:01:51.270Z,9.60
2023-11-19T21:04:18.100Z,8.17
2023-11-19T21:09:17.167Z,8.87
2023-11-19T21:11:44.289Z,5.60
2023-11-19T21:14:11.633Z,7.93
2023-11-19T21:16:38.611Z,7.27
2023-11-19T21:19:05.487Z,11.43
2023-11-19T21:21:32.752Z,11.27
2023-11-19T21:24:00.444Z,5.43
2023-11-19T21:26:27.159Z,12.20
2023-11-19T21:28:54.260Z,9.10
2023-11-19T21:31:21.090Z,9.03
2023-11-19T21:33:47.861Z,4.20
2023-11-19T21:36:14.668Z,4.97
2023-11-19T21:38:41.406Z,5.27
2023-11-19T21:41:08.256Z,11.00
2023-11-19T21:43:35.336Z,7.77
2023-11-19T21:46:02.378Z,10.73
2023-11-19T21:48:29.275Z,4.30
2023-11-19T21:50:57.208Z,6.77
2023-11-19T21:53:24.346Z,4.70
2023-11-19T21:55:51.175Z,4.40
2023-11-19T21:58:17.933Z,9.97
2023-11-19T22:00:44.871Z,5.80
2023-11-19T22:03:11.773Z,3.47
2023-11-19T22:05:38.738Z,3.70
2023-11-19T22:10:35.226Z,3.13
2023-11-19T22:13:02.014Z,6.70
2023-11-19T22:15:28.772Z,3.87
2023-11-19T22:17:55.610Z,7.47
2023-11-19T22:20:25.698Z,6.63
2023-11-19T22:22:53.009Z,3.63
2023-11-19T22:25:20.491Z,4.93
2023-11-19T22:27:47.501Z,6.07
2023-11-19T22:30:14.699Z,3.70
2023-11-19T22:32:41.773Z,4.77
2023-11-19T22:35:09.404Z,5.80
2023-11-19T22:37:36.206Z,3.70
2023-11-19T22:40:03.912Z,8.87
2023-11-19T22:42:30.660Z,5.03
2023-11-19T22:44:57.481Z,6.33
2023-11-19T22:47:24.327Z,5.13
2023-11-19T22:49:51.792Z,3.97
2023-11-19T22:52:18.578Z,3.40
2023-11-19T22:54:45.269Z,3.07
2023-11-19T22:57:11.999Z,3.30
2023-11-19T22:59:38.675Z,3.60
2023-11-19T23:02:07.237Z,4.20
2023-11-19T23:04:34.093Z,13.37
2023-11-19T23:07:02.216Z,2.33
2023-11-19T23:09:29.184Z,4.40
2023-11-19T23:11:55.898Z,1.80
2023-11-19T23:14:24.007Z,3.47
2023-11-19T23:16:50.803Z,4.63
2023-11-19T23:19:17.518Z,3.33
2023-11-19T23:21:45.649Z,3.70
2023-11-19T23:24:12.535Z,1.97
2023-11-19T23:26:39.377Z,3.00
2023-11-19T23:29:13.323Z,1.87
2023-11-19T23:31:42.783Z,8.10
2023-11-19T23:34:09.576Z,3.27
2023-11-19T23:36:36.338Z,6.63
2023-11-19T23:39:03.224Z,2.57
2023-11-19T23:41:32.386Z,4.60
2023-11-19T23:43:59.954Z,4.93
2023-11-19T23:46:27.275Z,6.37
2023-11-19T23:51:26.318Z,7.50
2023-11-19T23:53:54.093Z,2.00
2023-11-19T23:56:21.069Z,2.87
2023-11-19T23:58:53.349Z,3.90
